createdAt,value
2019-03-19T00:00:27.997Z,98529.00
2019-03-19T00:04:28.929Z,98526.00
2019-03-19T00:08:30.124Z,98537.00
2019-03-19T00:12:30.994Z,98539.00
2019-03-19T00:16:31.880Z,98558.00
2019-03-19T00:20:32.846Z,98558.00
2019-03-19T00:24:33.988Z,98553.00
2019-03-19T00:28:34.979Z,98569.00
2019-03-19T00:32:35.988Z,98561.00
2019-03-19T00:36:36.859Z,98558.00
2019-03-19T00:40:37.740Z,98555.00
2019-03-19T00:44:38.603Z,98561.00
2019-03-19T00:48:39.468Z,98567.00
2019-03-19T00:52:40.431Z,98557.00
2019-03-19T00:56:41.284Z,98559.00
2019-03-19T01:00:42.297Z,98556.00
2019-03-19T01:04:43.329Z,98560.00
2019-03-19T01:08:44.213Z,98560.00
2019-03-19T01:12:45.204Z,98574.00
2019-03-19T01:16:46.170Z,98569.00
2019-03-19T01:20:47.044Z,98575.00
2019-03-19T01:24:47.908Z,98576.00
2019-03-19T01:28:48.918Z,98567.00
2019-03-19T01:32:49.864Z,98567.00
2019-03-19T01:36:50.943Z,98557.00
2019-03-19T01:40:51.831Z,98554.00
2019-03-19T01:44:52.681Z,98562.00
2019-03-19T01:48:53.559Z,98562.00
2019-03-19T01:52:54.410Z,98562.00
2019-03-19T01:56:55.420Z,98577.00
2019-03-19T02:00:56.298Z,98570.00
2019-03-19T02:04:57.171Z,98575.00
2019-03-19T02:08:58.038Z,98578.00
2019-03-19T02:12:59.012Z,98576.00
2019-03-19T02:16:59.868Z,98579.00
2019-03-19T02:21:00.766Z,98587.00
2019-03-19T02:25:02.005Z,98594.00
2019-03-19T02:29:03.062Z,98588.00
2019-03-19T02:33:04.089Z,98598.00
2019-03-19T02:37:04.972Z,98606.00
2019-03-19T02:41:05.841Z,98593.00
2019-03-19T02:45:08.695Z,98593.00
2019-03-19T02:49:09.573Z,98612.00
2019-03-19T02:53:10.558Z,98612.00
2019-03-19T02:57:11.540Z,98611.00
2019-03-19T03:01:12.539Z,98611.00
2019-03-19T03:05:17.206Z,98618.00
2019-03-19T03:09:18.108Z,98614.00
2019-03-19T03:13:19.006Z,98622.00
2019-03-19T03:17:20.987Z,98619.00
2019-03-19T03:21:22.151Z,98628.00
2019-03-19T03:25:23.037Z,98627.00
2019-03-19T03:29:24.062Z,98624.00
2019-03-19T03:33:24.996Z,98624.00
2019-03-19T03:37:25.942Z,98632.00
2019-03-19T03:41:26.924Z,98638.00
2019-03-19T03:45:27.834Z,98650.00
2019-03-19T03:49:28.711Z,98663.00
2019-03-19T03:53:29.568Z,98667.00
2019-03-19T03:57:30.413Z,98668.00
2019-03-19T04:01:31.411Z,98677.00
2019-03-19T04:05:32.309Z,98676.00
2019-03-19T04:09:33.301Z,98688.00
2019-03-19T04:13:34.362Z,98688.00
2019-03-19T04:17:35.237Z,98691.00
2019-03-19T04:21:36.213Z,98706.00
2019-03-19T04:25:37.313Z,98701.00
2019-03-19T04:29:38.270Z,98711.00
2019-03-19T04:33:39.360Z,98708.00
2019-03-19T04:37:40.251Z,98714.00
2019-03-19T04:41:41.161Z,98718.00
2019-03-19T04:45:42.132Z,98714.00
2019-03-19T04:49:43.110Z,98707.00
2019-03-19T04:53:44.090Z,98713.00
2019-03-19T04:57:44.988Z,98710.00
2019-03-19T05:01:45.895Z,98706.00
2019-03-19T05:05:46.788Z,98725.00
2019-03-19T05:09:47.766Z,98717.00
2019-03-19T05:13:48.847Z,98714.00
2019-03-19T05:17:49.826Z,98721.00
2019-03-19T05:21:50.751Z,98733.00
2019-03-19T05:25:53.030Z,98724.00
2019-03-19T05:29:53.915Z,98723.00
2019-03-19T05:33:54.859Z,98735.00
2019-03-19T05:37:55.831Z,98738.00
2019-03-19T05:41:56.817Z,98738.00
2019-03-19T05:45:57.802Z,98736.00
2019-03-19T05:49:58.671Z,98743.00
2019-03-19T05:53:59.596Z,98748.00
2019-03-19T06:02:09.118Z,98767.00
2019-03-19T06:06:09.997Z,98766.00
2019-03-19T06:10:12.093Z,98767.00
2019-03-19T06:14:12.991Z,98771.00
2019-03-19T06:18:14.237Z,98786.00
2019-03-19T06:22:15.327Z,98793.00
2019-03-19T06:26:16.470Z,98796.00
2019-03-19T06:30:21.822Z,98801.00
2019-03-19T06:34:22.705Z,98806.00
2019-03-19T06:38:23.659Z,98810.00
2019-03-19T06:42:25.355Z,98819.00
2019-03-19T06:46:26.686Z,98824.00
2019-03-19T06:50:28.242Z,98825.00
2019-03-19T06:54:29.414Z,98818.00
2019-03-19T06:58:30.285Z,98830.00
2019-03-19T07:02:31.194Z,98836.00
2019-03-19T07:06:32.101Z,98843.00
2019-03-19T07:10:33.020Z,98839.00
2019-03-19T07:14:33.897Z,98837.00
2019-03-19T07:18:34.871Z,98846.00
2019-03-19T07:22:35.764Z,98847.00
2019-03-19T07:26:36.646Z,98854.00
2019-03-19T07:30:37.871Z,98854.00
2019-03-19T07:34:38.837Z,98849.00
2019-03-19T07:38:39.734Z,98844.00
2019-03-19T07:42:40.645Z,98859.00
2019-03-19T07:46:41.726Z,98857.00
2019-03-19T07:50:42.590Z,98855.00
2019-03-19T07:54:43.488Z,98853.00
2019-03-19T07:58:45.619Z,98862.00
2019-03-19T08:02:46.944Z,98880.00
2019-03-19T08:06:47.836Z,98881.00
2019-03-19T08:10:49.423Z,98883.00
2019-03-19T08:14:50.358Z,98904.00
2019-03-19T08:18:51.260Z,98900.00
2019-03-19T08:22:52.148Z,98906.00
2019-03-19T08:26:53.585Z,98913.00
2019-03-19T08:30:54.566Z,98904.00
2019-03-19T08:34:55.525Z,98920.00
2019-03-19T08:38:56.430Z,98926.00
2019-03-19T08:42:58.261Z,98922.00
2019-03-19T08:46:59.505Z,98931.00
2019-03-19T08:51:00.379Z,98943.00
2019-03-19T08:55:01.277Z,98945.00
2019-03-19T08:59:06.009Z,98945.00
2019-03-19T09:03:05.250Z,98944.00
2019-03-19T09:07:06.155Z,98950.00
2019-03-19T09:11:07.033Z,98951.00
2019-03-19T09:15:10.336Z,98957.00
2019-03-19T09:19:11.197Z,98952.00
2019-03-19T09:23:12.184Z,98959.00
2019-03-19T09:27:13.304Z,98962.00
2019-03-19T09:31:14.207Z,98950.00
2019-03-19T09:35:17.457Z,98946.00
2019-03-19T09:39:18.349Z,98950.00
2019-03-19T09:43:19.230Z,98957.00
2019-03-19T09:47:20.239Z,98952.00
2019-03-19T09:51:21.128Z,98944.00
2019-03-19T09:55:22.222Z,98947.00
2019-03-19T09:59:27.069Z,98950.00
2019-03-19T10:03:26.044Z,98968.00
2019-03-19T10:07:26.925Z,98968.00
2019-03-19T10:11:27.880Z,98962.00
2019-03-19T10:15:28.771Z,98966.00
2019-03-19T10:19:29.664Z,98976.00
2019-03-19T10:23:30.535Z,98977.00
2019-03-19T10:27:31.547Z,98969.00
2019-03-19T10:31:32.419Z,98987.00
2019-03-19T10:35:33.318Z,98984.00
2019-03-19T10:39:34.325Z,98982.00
2019-03-19T10:43:35.299Z,98984.00
2019-03-19T10:47:36.164Z,98979.00
2019-03-19T10:51:37.058Z,98980.00
2019-03-19T10:55:38.067Z,98975.00
2019-03-19T10:59:48.795Z,98975.00
2019-03-19T11:03:41.870Z,98982.00
2019-03-19T11:07:42.767Z,98981.00
2019-03-19T11:11:43.679Z,98991.00
2019-03-19T11:15:44.660Z,98994.00
2019-03-19T11:19:45.509Z,98991.00
2019-03-19T11:23:46.635Z,98992.00
2019-03-19T11:27:48.994Z,98992.00
2019-03-19T11:31:49.959Z,98994.00
2019-03-19T11:35:50.867Z,98989.00
2019-03-19T11:39:51.768Z,98982.00
2019-03-19T11:43:52.659Z,98979.00
2019-03-19T11:47:53.530Z,98980.00
2019-03-19T11:51:54.503Z,98976.00
2019-03-19T11:55:55.382Z,98983.00
2019-03-19T11:59:56.255Z,98983.00
2019-03-19T12:03:57.122Z,98992.00
2019-03-19T12:07:58.016Z,98985.00
2019-03-19T12:11:59.207Z,98995.00
2019-03-19T12:16:00.084Z,98995.00
2019-03-19T12:20:01.131Z,99002.00
2019-03-19T12:24:02.154Z,99009.00
2019-03-19T12:28:04.030Z,99008.00
2019-03-19T12:32:05.024Z,99012.00
2019-03-19T12:36:05.889Z,99001.00
2019-03-19T12:40:09.699Z,99000.00
2019-03-19T12:44:10.749Z,98987.00
2019-03-19T12:48:12.001Z,98988.00
2019-03-19T12:52:12.983Z,98986.00
2019-03-19T12:56:14.159Z,98983.00
2019-03-19T13:00:21.166Z,98982.00
2019-03-19T13:04:22.058Z,98976.00
2019-03-19T13:08:22.970Z,98975.00
2019-03-19T13:12:24.031Z,98988.00
2019-03-19T13:16:24.876Z,98986.00
2019-03-19T13:20:25.872Z,98978.00
2019-03-19T13:24:26.743Z,98973.00
2019-03-19T13:28:27.598Z,98982.00
2019-03-19T13:32:28.537Z,98984.00
2019-03-19T13:36:29.559Z,98987.00
2019-03-19T13:40:30.449Z,98990.00
2019-03-19T13:44:31.336Z,98982.00
2019-03-19T13:48:32.336Z,98989.00
2019-03-19T13:52:33.231Z,98989.00
2019-03-19T13:56:34.124Z,98995.00
2019-03-19T14:00:35.216Z,98983.00
2019-03-19T14:04:36.121Z,98990.00
2019-03-19T14:08:37.027Z,98987.00
2019-03-19T14:12:38.037Z,98982.00
2019-03-19T14:16:38.909Z,98986.00
2019-03-19T14:20:39.962Z,98987.00
2019-03-19T14:24:40.857Z,98985.00
2019-03-19T14:28:41.866Z,98997.00
2019-03-19T14:32:44.276Z,98994.00
2019-03-19T14:36:47.167Z,98989.00
2019-03-19T14:40:48.116Z,98992.00
2019-03-19T14:44:49.032Z,98996.00
2019-03-19T14:48:51.941Z,99006.00
2019-03-19T14:52:53.083Z,99003.00
2019-03-19T14:56:54.087Z,99000.00
2019-03-19T15:00:55.207Z,98993.00
2019-03-19T15:04:56.082Z,98991.00
2019-03-19T15:08:56.976Z,98984.00
2019-03-19T15:12:57.890Z,98991.00
2019-03-19T15:17:04.859Z,98997.00
2019-03-19T15:21:01.659Z,98991.00
2019-03-19T15:25:04.672Z,98991.00
2019-03-19T15:29:05.551Z,98997.00
2019-03-19T15:33:06.600Z,99008.00
2019-03-19T15:37:07.656Z,98996.00
2019-03-19T15:41:08.615Z,99000.00
2019-03-19T15:45:12.396Z,98997.00
2019-03-19T15:49:13.286Z,99003.00
2019-03-19T15:53:14.248Z,99015.00
2019-03-19T15:57:15.231Z,99013.00
2019-03-19T16:01:17.056Z,99012.00
2019-03-19T16:05:18.329Z,99012.00
2019-03-19T16:09:19.307Z,99020.00
2019-03-19T16:13:20.225Z,99022.00
2019-03-19T16:17:21.124Z,99023.00
2019-03-19T16:21:23.780Z,99022.00
2019-03-19T16:25:25.431Z,99028.00
2019-03-19T16:29:26.400Z,99024.00
2019-03-19T16:33:27.401Z,99035.00
2019-03-19T16:37:28.454Z,99033.00
2019-03-19T16:41:30.966Z,99047.00
2019-03-19T16:45:31.961Z,99040.00
2019-03-19T16:49:33.132Z,99039.00
2019-03-19T16:53:34.042Z,99048.00
2019-03-19T16:57:35.288Z,99059.00
2019-03-19T17:01:36.185Z,99063.00
2019-03-19T17:05:37.194Z,99059.00
2019-03-19T17:09:38.089Z,99060.00
2019-03-19T17:13:39.220Z,99071.00
2019-03-19T17:17:40.395Z,99077.00
2019-03-19T17:21:41.269Z,99081.00
2019-03-19T17:25:42.263Z,99080.00
2019-03-19T17:29:43.298Z,99091.00
2019-03-19T17:33:44.267Z,99094.00
2019-03-19T17:37:45.224Z,99096.00
2019-03-19T17:41:46.115Z,99100.00
2019-03-19T17:45:47.092Z,99094.00
2019-03-19T17:49:48.014Z,99107.00
2019-03-19T17:53:48.987Z,99117.00
2019-03-19T17:57:50.061Z,99112.00
2019-03-19T18:01:51.146Z,99124.00
2019-03-19T18:05:52.079Z,99124.00
2019-03-19T18:09:52.969Z,99135.00
2019-03-19T18:13:53.860Z,99128.00
2019-03-19T18:17:54.856Z,99134.00
2019-03-19T18:21:55.834Z,99133.00
2019-03-19T18:25:56.766Z,99149.00
2019-03-19T18:29:57.750Z,99140.00
2019-03-19T18:34:09.659Z,99147.00
2019-03-19T18:38:01.514Z,99158.00
2019-03-19T18:42:02.540Z,99163.00
2019-03-19T18:46:03.590Z,99172.00
2019-03-19T18:50:10.487Z,99169.00
2019-03-19T18:54:11.499Z,99170.00
2019-03-19T18:58:12.390Z,99176.00
2019-03-19T19:02:13.298Z,99176.00
2019-03-19T19:06:14.298Z,99179.00
2019-03-19T19:10:16.171Z,99177.00
2019-03-19T19:14:17.144Z,99192.00
2019-03-19T19:18:18.055Z,99185.00
2019-03-19T19:22:19.020Z,99189.00
2019-03-19T19:26:19.879Z,99187.00
2019-03-19T19:30:22.189Z,99190.00
2019-03-19T19:34:23.108Z,99190.00
2019-03-19T19:38:24.020Z,99193.00
2019-03-19T19:42:24.995Z,99191.00
2019-03-19T19:46:25.869Z,99198.00
2019-03-19T19:50:26.772Z,99199.00
2019-03-19T19:54:27.670Z,99210.00
2019-03-19T19:58:28.805Z,99210.00
2019-03-19T20:02:29.699Z,99213.00
2019-03-19T20:06:30.573Z,99217.00
2019-03-19T20:10:31.474Z,99227.00
2019-03-19T20:14:32.477Z,99225.00
2019-03-19T20:18:33.478Z,99234.00
2019-03-19T20:22:34.543Z,99227.00
2019-03-19T20:26:35.628Z,99236.00
2019-03-19T20:30:36.623Z,99240.00
2019-03-19T20:34:37.528Z,99244.00
2019-03-19T20:38:38.519Z,99244.00
2019-03-19T20:42:39.838Z,99247.00
2019-03-19T20:46:41.062Z,99254.00
2019-03-19T20:50:42.779Z,99257.00
2019-03-19T20:54:43.730Z,99261.00
2019-03-19T20:58:44.733Z,99259.00
2019-03-19T21:02:45.728Z,99266.00
2019-03-19T21:06:46.752Z,99285.00
2019-03-19T21:10:47.754Z,99274.00
2019-03-19T21:14:48.634Z,99279.00
2019-03-19T21:18:49.625Z,99293.00
2019-03-19T21:22:50.634Z,99291.00
2019-03-19T21:26:51.678Z,99292.00
2019-03-19T21:30:52.562Z,99298.00
2019-03-19T21:34:53.612Z,99295.00
2019-03-19T21:38:54.584Z,99297.00
2019-03-19T21:42:56.002Z,99295.00
2019-03-19T21:46:56.946Z,99294.00
2019-03-19T21:50:57.819Z,99295.00
2019-03-19T21:54:58.783Z,99297.00
2019-03-19T21:58:59.754Z,99289.00
2019-03-19T22:03:00.639Z,99294.00
2019-03-19T22:07:01.532Z,99299.00
2019-03-19T22:11:02.622Z,99294.00
2019-03-19T22:15:09.326Z,99304.00
2019-03-19T22:19:10.288Z,99306.00
2019-03-19T22:23:11.184Z,99308.00
2019-03-19T22:27:12.063Z,99309.00
2019-03-19T22:31:12.993Z,99314.00
2019-03-19T22:35:14.103Z,99316.00
2019-03-19T22:39:14.954Z,99317.00
2019-03-19T22:43:15.833Z,99329.00
2019-03-19T22:47:16.708Z,99323.00
2019-03-19T22:51:17.598Z,99326.00
2019-03-19T22:55:28.511Z,99333.00
2019-03-19T22:59:23.475Z,99340.00
2019-03-19T23:03:24.428Z,99344.00
2019-03-19T23:07:25.451Z,99352.00
2019-03-19T23:11:26.439Z,99349.00
2019-03-19T23:15:27.556Z,99348.00
2019-03-19T23:19:28.533Z,99355.00
2019-03-19T23:23:29.451Z,99360.00
2019-03-19T23:27:30.320Z,99352.00
2019-03-19T23:31:31.276Z,99357.00
2019-03-19T23:35:32.286Z,99365.00
2019-03-19T23:39:33.588Z,99361.00
2019-03-19T23:43:34.571Z,99353.00
2019-03-19T23:47:35.448Z,99362.00
2019-03-19T23:51:36.406Z,99362.00
2019-03-19T23:55:37.275Z,99358.00
2019-03-19T23:59:38.168Z,99354.00
